sensor_id;sensor_type;location;lat;lon;timestamp;pressure;altitude;pressure_sealevel;temperature;humidity
79077;BME280;68477;42.698;23.342;2023-08-12T00:00:49;95953.28;;;17.32;64.58
79077;BME280;68477;42.698;23.342;2023-08-12T00:03:15;95958.22;;;17.35;63.60
79077;BME280;68477;42.698;23.342;2023-08-12T00:05:40;95954.34;;;17.79;61.86
79077;BME280;68477;42.698;23.342;2023-08-12T00:08:08;95953.53;;;17.85;62.20
79077;BME280;68477;42.698;23.342;2023-08-12T00:10:34;95958.66;;;17.86;62.16
79077;BME280;68477;42.698;23.342;2023-08-12T00:12:59;95954.72;;;17.75;62.31
79077;BME280;68477;42.698;23.342;2023-08-12T00:15:25;95961.69;;;17.77;62.64
79077;BME280;68477;42.698;23.342;2023-08-12T00:17:52;95961.19;;;17.60;63.49
79077;BME280;68477;42.698;23.342;2023-08-12T00:20:18;95958.34;;;17.61;62.59
79077;BME280;68477;42.698;23.342;2023-08-12T00:22:43;95956.13;;;17.24;64.66
79077;BME280;68477;42.698;23.342;2023-08-12T00:25:09;95955.56;;;17.41;63.00
79077;BME280;68477;42.698;23.342;2023-08-12T00:27:35;95953.16;;;17.46;63.25
79077;BME280;68477;42.698;23.342;2023-08-12T00:30:03;95956.91;;;17.65;62.31
79077;BME280;68477;42.698;23.342;2023-08-12T00:32:29;95954.66;;;17.62;62.26
79077;BME280;68477;42.698;23.342;2023-08-12T00:34:55;95949.25;;;17.08;63.57
79077;BME280;68477;42.698;23.342;2023-08-12T00:37:20;95953.31;;;16.76;65.10
79077;BME280;68477;42.698;23.342;2023-08-12T00:39:46;95947.94;;;16.91;64.88
79077;BME280;68477;42.698;23.342;2023-08-12T00:42:11;95952.56;;;16.82;64.67
79077;BME280;68477;42.698;23.342;2023-08-12T00:44:37;95949.50;;;17.13;63.68
79077;BME280;68477;42.698;23.342;2023-08-12T00:47:02;95941.06;;;17.03;64.61
79077;BME280;68477;42.698;23.342;2023-08-12T00:49:28;95953.53;;;17.02;63.98
79077;BME280;68477;42.698;23.342;2023-08-12T00:51:54;95948.31;;;16.87;64.64
79077;BME280;68477;42.698;23.342;2023-08-12T00:54:21;95947.06;;;17.18;63.43
79077;BME280;68477;42.698;23.342;2023-08-12T00:56:48;95944.31;;;16.70;64.41
79077;BME280;68477;42.698;23.342;2023-08-12T00:59:14;95940.78;;;17.26;62.68
79077;BME280;68477;42.698;23.342;2023-08-12T01:01:43;95941.03;;;16.68;64.38
79077;BME280;68477;42.698;23.342;2023-08-12T01:04:08;95937.94;;;16.43;66.83
79077;BME280;68477;42.698;23.342;2023-08-12T01:06:35;95936.47;;;16.41;67.02
79077;BME280;68477;42.698;23.342;2023-08-12T01:09:02;95936.47;;;16.90;64.51
79077;BME280;68477;42.698;23.342;2023-08-12T01:11:50;95940.72;;;17.19;63.79
79077;BME280;68477;42.698;23.342;2023-08-12T01:14:57;95933.03;;;16.96;64.18
79077;BME280;68477;42.698;23.342;2023-08-12T01:17:25;95935.16;;;17.07;64.56
79077;BME280;68477;42.698;23.342;2023-08-12T01:19:52;95935.53;;;16.48;65.55
79077;BME280;68477;42.698;23.342;2023-08-12T01:22:21;95940.78;;;15.78;68.88
79077;BME280;68477;42.698;23.342;2023-08-12T01:24:48;95936.19;;;15.86;68.84
79077;BME280;68477;42.698;23.342;2023-08-12T01:27:16;95925.00;;;16.12;67.61
79077;BME280;68477;42.698;23.342;2023-08-12T01:29:44;95926.25;;;16.16;67.14
79077;BME280;68477;42.698;23.342;2023-08-12T01:32:52;95928.94;;;16.66;65.92
79077;BME280;68477;42.698;23.342;2023-08-12T01:35:26;95929.06;;;16.57;66.24
79077;BME280;68477;42.698;23.342;2023-08-12T01:37:53;95925.63;;;16.64;65.33
79077;BME280;68477;42.698;23.342;2023-08-12T01:40:20;95923.03;;;15.99;67.65
79077;BME280;68477;42.698;23.342;2023-08-12T01:42:45;95930.38;;;15.61;68.76
79077;BME280;68477;42.698;23.342;2023-08-12T01:45:11;95924.16;;;15.90;68.04
79077;BME280;68477;42.698;23.342;2023-08-12T01:47:37;95929.69;;;15.74;68.68
79077;BME280;68477;42.698;23.342;2023-08-12T01:50:03;95930.19;;;15.99;68.56
79077;BME280;68477;42.698;23.342;2023-08-12T01:52:28;95933.28;;;16.02;67.70
79077;BME280;68477;42.698;23.342;2023-08-12T01:54:54;95931.56;;;16.38;67.26
79077;BME280;68477;42.698;23.342;2023-08-12T01:57:19;95937.50;;;16.40;67.30
79077;BME280;68477;42.698;23.342;2023-08-12T01:59:45;95930.66;;;16.30;68.08
79077;BME280;68477;42.698;23.342;2023-08-12T02:02:10;95936.66;;;16.39;67.95
79077;BME280;68477;42.698;23.342;2023-08-12T02:04:36;95933.00;;;16.40;67.68
79077;BME280;68477;42.698;23.342;2023-08-12T02:07:03;95934.16;;;15.23;71.91
79077;BME280;68477;42.698;23.342;2023-08-12T02:09:28;95932.91;;;15.19;72.78
79077;BME280;68477;42.698;23.342;2023-08-12T02:11:54;95936.59;;;15.68;71.20
79077;BME280;68477;42.698;23.342;2023-08-12T02:14:19;95933.16;;;15.89;70.41
79077;BME280;68477;42.698;23.342;2023-08-12T02:16:44;95929.69;;;16.10;69.49
79077;BME280;68477;42.698;23.342;2023-08-12T02:19:10;95928.97;;;15.80;70.09
79077;BME280;68477;42.698;23.342;2023-08-12T02:21:35;95928.72;;;15.96;70.01
79077;BME280;68477;42.698;23.342;2023-08-12T02:24:01;95925.94;;;15.83;70.60
79077;BME280;68477;42.698;23.342;2023-08-12T02:26:26;95923.38;;;14.95;72.72
79077;BME280;68477;42.698;23.342;2023-08-12T02:28:52;95928.97;;;15.80;70.31
79077;BME280;68477;42.698;23.342;2023-08-12T02:31:17;95933.44;;;15.80;70.32
79077;BME280;68477;42.698;23.342;2023-08-12T02:33:43;95932.03;;;15.98;69.21
79077;BME280;68477;42.698;23.342;2023-08-12T02:36:09;95937.53;;;15.97;69.61
79077;BME280;68477;42.698;23.342;2023-08-12T02:38:34;95928.47;;;15.91;70.01
79077;BME280;68477;42.698;23.342;2023-08-12T02:41:00;95933.38;;;15.94;69.93
79077;BME280;68477;42.698;23.342;2023-08-12T02:43:26;95939.19;;;14.73;73.74
79077;BME280;68477;42.698;23.342;2023-08-12T02:45:51;95936.88;;;14.55;74.72
79077;BME280;68477;42.698;23.342;2023-08-12T02:48:17;95940.88;;;15.40;71.80
79077;BME280;68477;42.698;23.342;2023-08-12T02:50:43;95940.59;;;15.50;71.97
79077;BME280;68477;42.698;23.342;2023-08-12T02:53:09;95935.69;;;15.61;70.93
79077;BME280;68477;42.698;23.342;2023-08-12T02:55:35;95944.44;;;15.77;70.15
79077;BME280;68477;42.698;23.342;2023-08-12T02:58:01;95944.66;;;15.60;71.22
79077;BME280;68477;42.698;23.342;2023-08-12T03:00:27;95948.00;;;15.69;70.89
79077;BME280;68477;42.698;23.342;2023-08-12T03:02:53;95943.44;;;14.60;75.22
79077;BME280;68477;42.698;23.342;2023-08-12T03:05:18;95947.03;;;14.67;76.67
79077;BME280;68477;42.698;23.342;2023-08-12T03:07:43;95948.22;;;15.23;72.82
79077;BME280;68477;42.698;23.342;2023-08-12T03:10:09;95953.50;;;15.38;72.54
79077;BME280;68477;42.698;23.342;2023-08-12T03:12:35;95949.50;;;15.42;72.32
79077;BME280;68477;42.698;23.342;2023-08-12T03:15:01;95952.22;;;15.49;71.58
79077;BME280;68477;42.698;23.342;2023-08-12T03:17:26;95950.53;;;15.41;72.08
79077;BME280;68477;42.698;23.342;2023-08-12T03:19:52;95950.56;;;14.36;77.27
79077;BME280;68477;42.698;23.342;2023-08-12T03:22:19;95952.06;;;14.39;77.46
79077;BME280;68477;42.698;23.342;2023-08-12T03:24:45;95956.34;;;14.77;75.72
79077;BME280;68477;42.698;23.342;2023-08-12T03:27:10;95953.34;;;14.80;75.49
79077;BME280;68477;42.698;23.342;2023-08-12T03:29:35;95954.72;;;14.76;75.13
79077;BME280;68477;42.698;23.342;2023-08-12T03:32:01;95955.47;;;14.85;75.73
79077;BME280;68477;42.698;23.342;2023-08-12T03:34:28;95956.00;;;14.95;75.89
79077;BME280;68477;42.698;23.342;2023-08-12T03:36:54;95956.66;;;15.12;74.26
79077;BME280;68477;42.698;23.342;2023-08-12T03:39:20;95958.47;;;14.44;76.25
79077;BME280;68477;42.698;23.342;2023-08-12T03:41:45;95958.22;;;14.31;77.65
79077;BME280;68477;42.698;23.342;2023-08-12T03:44:11;95960.97;;;14.61;76.85
79077;BME280;68477;42.698;23.342;2023-08-12T03:46:36;95959.66;;;15.09;73.48
79077;BME280;68477;42.698;23.342;2023-08-12T03:49:02;95958.66;;;15.10;72.63
79077;BME280;68477;42.698;23.342;2023-08-12T03:51:27;95957.94;;;15.31;73.31
79077;BME280;68477;42.698;23.342;2023-08-12T03:53:53;95967.50;;;15.47;72.57
79077;BME280;68477;42.698;23.342;2023-08-12T03:56:18;95970.16;;;15.61;71.97
79077;BME280;68477;42.698;23.342;2023-08-12T03:58:43;95962.53;;;15.58;72.24
79077;BME280;68477;42.698;23.342;2023-08-12T04:01:09;95966.50;;;15.48;72.68
79077;BME280;68477;42.698;23.342;2023-08-12T04:03:34;95965.22;;;15.29;73.20
79077;BME280;68477;42.698;23.342;2023-08-12T04:06:00;95966.94;;;15.36;72.54
79077;BME280;68477;42.698;23.342;2023-08-12T04:08:25;95972.72;;;15.25;73.83
79077;BME280;68477;42.698;23.342;2023-08-12T04:10:51;95963.47;;;15.36;73.00
79077;BME280;68477;42.698;23.342;2023-08-12T04:13:17;95968.34;;;15.32;72.75
79077;BME280;68477;42.698;23.342;2023-08-12T04:15:47;95966.41;;;15.56;71.94
79077;BME280;68477;42.698;23.342;2023-08-12T04:18:14;95972.81;;;15.32;73.15
79077;BME280;68477;42.698;23.342;2023-08-12T04:20:39;95969.06;;;15.41;72.60
79077;BME280;68477;42.698;23.342;2023-08-12T04:23:05;95977.94;;;15.19;72.94
79077;BME280;68477;42.698;23.342;2023-08-12T04:25:31;95966.56;;;15.39;nan
79077;BME280;68477;42.698;23.342;2023-08-12T04:27:56;95972.00;;;15.31;72.25
79077;BME280;68477;42.698;23.342;2023-08-12T04:30:22;95972.69;;;15.40;71.70
79077;BME280;68477;42.698;23.342;2023-08-12T04:32:47;95980.22;;;15.36;70.93
79077;BME280;68477;42.698;23.342;2023-08-12T04:35:12;95975.53;;;15.68;70.59
79077;BME280;68477;42.698;23.342;2023-08-12T04:37:38;95973.91;;;15.37;69.65
79077;BME280;68477;42.698;23.342;2023-08-12T04:40:04;95974.53;;;15.54;70.29
79077;BME280;68477;42.698;23.342;2023-08-12T04:42:30;95979.94;;;15.46;70.28
79077;BME280;68477;42.698;23.342;2023-08-12T04:44:55;95979.28;;;15.59;69.81
79077;BME280;68477;42.698;23.342;2023-08-12T04:47:21;95978.28;;;15.75;69.58
79077;BME280;68477;42.698;23.342;2023-08-12T04:49:46;95975.50;;;15.83;69.40
79077;BME280;68477;42.698;23.342;2023-08-12T04:52:12;95976.94;;;15.85;69.05
79077;BME280;68477;42.698;23.342;2023-08-12T04:54:37;95975.41;;;15.91;68.08
79077;BME280;68477;42.698;23.342;2023-08-12T04:57:03;95980.72;;;16.12;67.83
79077;BME280;68477;42.698;23.342;2023-08-12T04:59:28;95976.69;;;16.16;67.40
79077;BME280;68477;42.698;23.342;2023-08-12T05:01:53;95985.38;;;15.89;68.48
79077;BME280;68477;42.698;23.342;2023-08-12T05:04:19;95985.91;;;16.42;67.76
79077;BME280;68477;42.698;23.342;2023-08-12T05:06:44;95979.72;;;16.56;66.40
79077;BME280;68477;42.698;23.342;2023-08-12T05:09:11;95982.47;;;16.91;65.36
79077;BME280;68477;42.698;23.342;2023-08-12T05:11:36;95987.69;;;16.77;65.60
79077;BME280;68477;42.698;23.342;2023-08-12T05:14:02;95991.16;;;16.78;65.45
79077;BME280;68477;42.698;23.342;2023-08-12T05:16:27;95982.00;;;16.80;65.94
79077;BME280;68477;42.698;23.342;2023-08-12T05:18:54;95983.91;;;16.93;65.37
79077;BME280;68477;42.698;23.342;2023-08-12T05:21:19;95987.94;;;17.10;65.09
79077;BME280;68477;42.698;23.342;2023-08-12T05:23:45;95991.78;;;17.36;64.37
79077;BME280;68477;42.698;23.342;2023-08-12T05:26:10;95987.47;;;17.35;62.64
79077;BME280;68477;42.698;23.342;2023-08-12T05:28:36;95997.91;;;17.36;63.92
79077;BME280;68477;42.698;23.342;2023-08-12T05:31:01;95994.16;;;17.65;63.37
79077;BME280;68477;42.698;23.342;2023-08-12T05:33:27;95996.56;;;17.54;63.34
79077;BME280;68477;42.698;23.342;2023-08-12T05:35:52;95995.91;;;17.80;63.18
79077;BME280;68477;42.698;23.342;2023-08-12T05:38:18;95994.63;;;17.75;62.85
79077;BME280;68477;42.698;23.342;2023-08-12T05:40:43;96003.75;;;17.60;63.53
79077;BME280;68477;42.698;23.342;2023-08-12T05:43:09;96000.22;;;17.53;63.30
79077;BME280;68477;42.698;23.342;2023-08-12T05:45:34;96000.50;;;17.64;62.18
79077;BME280;68477;42.698;23.342;2023-08-12T05:47:59;95989.31;;;17.69;63.05
79077;BME280;68477;42.698;23.342;2023-08-12T05:50:25;95995.47;;;17.76;62.28
79077;BME280;68477;42.698;23.342;2023-08-12T05:52:50;95999.88;;;18.10;60.79
79077;BME280;68477;42.698;23.342;2023-08-12T05:55:16;95989.41;;;17.95;60.89
79077;BME280;68477;42.698;23.342;2023-08-12T05:57:41;95987.34;;;17.91;60.67
79077;BME280;68477;42.698;23.342;2023-08-12T06:00:07;95985.91;;;17.95;61.54
79077;BME280;68477;42.698;23.342;2023-08-12T06:02:33;95984.69;;;17.91;60.52
79077;BME280;68477;42.698;23.342;2023-08-12T06:04:58;95981.78;;;17.86;62.27
79077;BME280;68477;42.698;23.342;2023-08-12T06:07:24;95980.47;;;18.29;59.83
79077;BME280;68477;42.698;23.342;2023-08-12T06:09:49;95976.22;;;18.48;59.96
79077;BME280;68477;42.698;23.342;2023-08-12T06:12:16;95974.41;;;18.75;57.48
79077;BME280;68477;42.698;23.342;2023-08-12T06:14:41;95968.25;;;18.75;57.30
79077;BME280;68477;42.698;23.342;2023-08-12T06:17:07;95977.84;;;19.02;57.58
79077;BME280;68477;42.698;23.342;2023-08-12T06:19:33;95977.84;;;19.02;56.84
79077;BME280;68477;42.698;23.342;2023-08-12T06:21:58;95964.28;;;19.30;56.58
79077;BME280;68477;42.698;23.342;2023-08-12T06:24:24;95975.28;;;19.67;56.12
79077;BME280;68477;42.698;23.342;2023-08-12T06:26:49;95973.31;;;19.29;56.44
79077;BME280;68477;42.698;23.342;2023-08-12T06:29:14;95970.03;;;19.14;57.72
79077;BME280;68477;42.698;23.342;2023-08-12T06:31:40;95970.38;;;19.57;56.34
79077;BME280;68477;42.698;23.342;2023-08-12T06:34:06;95962.47;;;19.17;57.40
79077;BME280;68477;42.698;23.342;2023-08-12T06:36:31;95962.53;;;19.69;54.82
79077;BME280;68477;42.698;23.342;2023-08-12T06:38:57;95957.03;;;19.57;55.99
79077;BME280;68477;42.698;23.342;2023-08-12T06:41:22;95951.78;;;19.89;55.29
79077;BME280;68477;42.698;23.342;2023-08-12T06:43:48;95956.41;;;20.70;53.12
79077;BME280;68477;42.698;23.342;2023-08-12T06:46:13;95954.22;;;20.60;53.49
79077;BME280;68477;42.698;23.342;2023-08-12T06:48:39;95955.38;;;20.08;53.69
79077;BME280;68477;42.698;23.342;2023-08-12T06:51:05;95954.28;;;20.53;51.84
79077;BME280;68477;42.698;23.342;2023-08-12T06:53:36;95955.72;;;20.56;52.02
79077;BME280;68477;42.698;23.342;2023-08-12T06:56:03;95947.66;;;20.24;53.63
79077;BME280;68477;42.698;23.342;2023-08-12T06:58:28;95952.97;;;19.93;54.12
79077;BME280;68477;42.698;23.342;2023-08-12T07:00:54;95958.13;;;20.64;53.54
79077;BME280;68477;42.698;23.342;2023-08-12T07:03:19;95949.31;;;21.32;51.73
79077;BME280;68477;42.698;23.342;2023-08-12T07:05:45;95948.47;;;21.49;50.84
79077;BME280;68477;42.698;23.342;2023-08-12T07:08:10;95948.13;;;21.64;51.12
79077;BME280;68477;42.698;23.342;2023-08-12T07:10:39;95939.03;;;21.65;50.83
79077;BME280;68477;42.698;23.342;2023-08-12T07:13:05;95948.59;;;21.91;48.79
79077;BME280;68477;42.698;23.342;2023-08-12T07:15:30;95936.47;;;21.89;49.04
79077;BME280;68477;42.698;23.342;2023-08-12T07:17:55;95942.91;;;22.18;48.67
79077;BME280;68477;42.698;23.342;2023-08-12T07:20:23;95939.78;;;22.02;48.18
79077;BME280;68477;42.698;23.342;2023-08-12T07:22:50;95947.44;;;22.47;46.67
79077;BME280;68477;42.698;23.342;2023-08-12T07:25:16;95942.88;;;22.06;47.44
79077;BME280;68477;42.698;23.342;2023-08-12T07:27:41;95946.75;;;22.10;46.89
79077;BME280;68477;42.698;23.342;2023-08-12T07:30:07;95942.47;;;22.74;45.29
79077;BME280;68477;42.698;23.342;2023-08-12T07:32:33;95937.75;;;22.46;45.95
79077;BME280;68477;42.698;23.342;2023-08-12T07:34:58;95939.91;;;22.67;46.41
79077;BME280;68477;42.698;23.342;2023-08-12T07:37:25;95949.16;;;22.42;45.49
79077;BME280;68477;42.698;23.342;2023-08-12T07:39:50;95932.44;;;22.81;44.43
79077;BME280;68477;42.698;23.342;2023-08-12T07:42:16;95933.50;;;22.80;45.02
79077;BME280;68477;42.698;23.342;2023-08-12T07:44:41;95932.97;;;23.13;44.68
79077;BME280;68477;42.698;23.342;2023-08-12T07:47:07;95928.88;;;22.99;45.33
79077;BME280;68477;42.698;23.342;2023-08-12T07:49:32;95926.31;;;23.04;43.64
79077;BME280;68477;42.698;23.342;2023-08-12T07:51:57;95923.25;;;23.36;43.19
79077;BME280;68477;42.698;23.342;2023-08-12T07:54:23;95928.84;;;23.46;43.21
79077;BME280;68477;42.698;23.342;2023-08-12T07:56:48;95923.91;;;23.66;42.45
79077;BME280;68477;42.698;23.342;2023-08-12T07:59:14;95916.94;;;23.30;44.20
79077;BME280;68477;42.698;23.342;2023-08-12T08:01:39;95918.94;;;23.87;41.88
79077;BME280;68477;42.698;23.342;2023-08-12T08:04:05;95908.66;;;24.12;41.54
79077;BME280;68477;42.698;23.342;2023-08-12T08:06:31;95915.03;;;24.23;40.81
79077;BME280;68477;42.698;23.342;2023-08-12T08:08:56;95910.78;;;23.18;42.05
79077;BME280;68477;42.698;23.342;2023-08-12T08:11:24;95911.56;;;23.42;42.76
79077;BME280;68477;42.698;23.342;2023-08-12T08:13:49;95910.19;;;23.91;41.59
79077;BME280;68477;42.698;23.342;2023-08-12T08:16:15;95914.06;;;24.41;40.57
79077;BME280;68477;42.698;23.342;2023-08-12T08:18:40;95907.31;;;24.72;40.51
79077;BME280;68477;42.698;23.342;2023-08-12T08:21:06;95917.06;;;24.44;39.27
79077;BME280;68477;42.698;23.342;2023-08-12T08:23:31;95910.69;;;24.33;39.60
79077;BME280;68477;42.698;23.342;2023-08-12T08:25:57;95909.16;;;24.54;39.63
79077;BME280;68477;42.698;23.342;2023-08-12T08:28:22;95914.31;;;24.89;39.54
79077;BME280;68477;42.698;23.342;2023-08-12T08:30:48;95913.06;;;25.14;39.25
79077;BME280;68477;42.698;23.342;2023-08-12T08:33:14;95905.91;;;24.86;39.17
79077;BME280;68477;42.698;23.342;2023-08-12T08:35:39;95899.97;;;25.17;37.64
79077;BME280;68477;42.698;23.342;2023-08-12T08:38:04;95904.34;;;25.23;38.95
79077;BME280;68477;42.698;23.342;2023-08-12T08:40:30;95904.19;;;25.13;37.89
79077;BME280;68477;42.698;23.342;2023-08-12T08:42:57;95903.53;;;24.56;37.31
79077;BME280;68477;42.698;23.342;2023-08-12T08:45:25;95898.84;;;25.35;36.36
79077;BME280;68477;42.698;23.342;2023-08-12T08:47:51;95896.63;;;25.49;36.65
79077;BME280;68477;42.698;23.342;2023-08-12T08:50:18;95899.00;;;25.07;36.36
79077;BME280;68477;42.698;23.342;2023-08-12T08:52:44;95886.00;;;25.20;37.14
79077;BME280;68477;42.698;23.342;2023-08-12T08:55:11;95892.22;;;25.65;36.94
79077;BME280;68477;42.698;23.342;2023-08-12T08:57:37;95892.06;;;25.71;37.92
79077;BME280;68477;42.698;23.342;2023-08-12T09:00:03;95890.03;;;25.62;36.97
79077;BME280;68477;42.698;23.342;2023-08-12T09:02:33;95884.94;;;26.09;35.60
79077;BME280;68477;42.698;23.342;2023-08-12T09:04:59;95885.47;;;25.62;36.03
79077;BME280;68477;42.698;23.342;2023-08-12T09:07:25;95883.44;;;25.96;35.74
79077;BME280;68477;42.698;23.342;2023-08-12T09:09:52;95878.69;;;25.81;36.51
79077;BME280;68477;42.698;23.342;2023-08-12T09:12:18;95877.06;;;26.34;35.28
79077;BME280;68477;42.698;23.342;2023-08-12T09:14:43;95875.78;;;26.37;34.73
79077;BME280;68477;42.698;23.342;2023-08-12T09:17:09;95868.97;;;26.34;35.52
79077;BME280;68477;42.698;23.342;2023-08-12T09:19:35;95872.19;;;26.31;35.76
79077;BME280;68477;42.698;23.342;2023-08-12T09:22:03;95866.66;;;27.17;34.08
79077;BME280;68477;42.698;23.342;2023-08-12T09:24:28;95864.00;;;27.22;33.46
79077;BME280;68477;42.698;23.342;2023-08-12T09:26:55;95863.56;;;26.61;34.56
79077;BME280;68477;42.698;23.342;2023-08-12T09:29:29;95861.06;;;27.29;33.80
79077;BME280;68477;42.698;23.342;2023-08-12T09:31:54;95866.16;;;27.20;32.93
79077;BME280;68477;42.698;23.342;2023-08-12T09:34:20;95849.84;;;27.05;34.44
79077;BME280;68477;42.698;23.342;2023-08-12T09:36:46;95842.06;;;27.14;33.23
79077;BME280;68477;42.698;23.342;2023-08-12T09:39:12;95854.00;;;26.44;34.45
79077;BME280;68477;42.698;23.342;2023-08-12T09:41:38;95842.84;;;26.67;34.21
79077;BME280;68477;42.698;23.342;2023-08-12T09:44:06;95841.09;;;27.30;34.57
79077;BME280;68477;42.698;23.342;2023-08-12T09:46:35;95837.03;;;27.33;32.59
79077;BME280;68477;42.698;23.342;2023-08-12T09:49:00;95839.56;;;27.60;33.38
79077;BME280;68477;42.698;23.342;2023-08-12T09:51:26;95836.47;;;27.88;33.29
79077;BME280;68477;42.698;23.342;2023-08-12T09:53:53;95836.75;;;28.17;32.07
79077;BME280;68477;42.698;23.342;2023-08-12T09:56:19;95834.66;;;28.34;32.86
79077;BME280;68477;42.698;23.342;2023-08-12T09:58:48;95829.19;;;28.14;31.81
79077;BME280;68477;42.698;23.342;2023-08-12T10:01:18;95830.59;;;28.37;31.64
79077;BME280;68477;42.698;23.342;2023-08-12T10:03:46;95826.41;;;27.68;32.25
79077;BME280;68477;42.698;23.342;2023-08-12T10:06:14;95818.66;;;27.30;32.05
79077;BME280;68477;42.698;23.342;2023-08-12T10:08:40;95822.47;;;28.57;31.30
79077;BME280;68477;42.698;23.342;2023-08-12T10:11:06;95826.81;;;28.38;30.67
79077;BME280;68477;42.698;23.342;2023-08-12T10:13:33;95817.28;;;29.12;30.68
79077;BME280;68477;42.698;23.342;2023-08-12T10:15:59;95814.91;;;28.54;31.62
79077;BME280;68477;42.698;23.342;2023-08-12T10:18:27;95816.75;;;28.18;30.07
79077;BME280;68477;42.698;23.342;2023-08-12T10:20:53;95808.59;;;29.05;30.58
79077;BME280;68477;42.698;23.342;2023-08-12T10:23:21;95809.53;;;29.54;30.69
79077;BME280;68477;42.698;23.342;2023-08-12T10:25:47;95806.19;;;29.73;29.96
79077;BME280;68477;42.698;23.342;2023-08-12T10:28:14;95798.41;;;30.00;29.32
79077;BME280;68477;42.698;23.342;2023-08-12T10:30:44;95798.66;;;29.60;30.10
79077;BME280;68477;42.698;23.342;2023-08-12T10:33:10;95803.09;;;29.35;27.53
79077;BME280;68477;42.698;23.342;2023-08-12T10:35:46;95800.63;;;29.49;28.73
79077;BME280;68477;42.698;23.342;2023-08-12T10:38:14;95796.72;;;29.65;28.87
79077;BME280;68477;42.698;23.342;2023-08-12T10:40:41;95795.63;;;29.66;28.25
79077;BME280;68477;42.698;23.342;2023-08-12T10:43:07;95784.72;;;29.81;26.87
79077;BME280;68477;42.698;23.342;2023-08-12T10:46:09;95789.91;;;29.13;29.03
79077;BME280;68477;42.698;23.342;2023-08-12T10:48:55;95786.75;;;28.40;29.53
79077;BME280;68477;42.698;23.342;2023-08-12T10:51:39;95786.69;;;29.01;28.89
79077;BME280;68477;42.698;23.342;2023-08-12T10:54:21;95780.69;;;29.79;28.47
79077;BME280;68477;42.698;23.342;2023-08-12T11:02:20;95775.88;;;28.81;28.74
79077;BME280;68477;42.698;23.342;2023-08-12T11:05:09;95770.00;;;29.38;29.03
79077;BME280;68477;42.698;23.342;2023-08-12T11:07:40;95768.84;;;29.54;27.04
79077;BME280;68477;42.698;23.342;2023-08-12T11:12:40;95759.28;;;30.46;25.75
79077;BME280;68477;42.698;23.342;2023-08-12T11:15:07;95759.06;;;30.08;26.84
79077;BME280;68477;42.698;23.342;2023-08-12T11:17:50;95760.41;;;30.05;26.51
79077;BME280;68477;42.698;23.342;2023-08-12T11:20:16;95754.75;;;28.88;27.35
79077;BME280;68477;42.698;23.342;2023-08-12T11:22:43;95759.66;;;28.60;26.93
79077;BME280;68477;42.698;23.342;2023-08-12T11:25:10;95759.81;;;29.10;26.70
79077;BME280;68477;42.698;23.342;2023-08-12T11:30:03;95748.19;;;30.08;26.29
79077;BME280;68477;42.698;23.342;2023-08-12T11:32:28;95748.69;;;30.44;24.51
79077;BME280;68477;42.698;23.342;2023-08-12T11:34:54;95753.44;;;29.50;25.74
79077;BME280;68477;42.698;23.342;2023-08-12T11:37:20;95747.19;;;30.33;25.23
79077;BME280;68477;42.698;23.342;2023-08-12T11:39:45;95740.91;;;30.37;24.61
79077;BME280;68477;42.698;23.342;2023-08-12T11:42:11;95741.19;;;30.94;24.77
79077;BME280;68477;42.698;23.342;2023-08-12T11:44:36;95740.78;;;30.82;25.61
79077;BME280;68477;42.698;23.342;2023-08-12T11:47:02;95742.38;;;31.31;23.79
79077;BME280;68477;42.698;23.342;2023-08-12T11:49:27;95740.75;;;31.72;23.67
79077;BME280;68477;42.698;23.342;2023-08-12T11:51:53;95735.13;;;31.45;23.49
79077;BME280;68477;42.698;23.342;2023-08-12T11:54:18;95735.22;;;31.16;23.83
79077;BME280;68477;42.698;23.342;2023-08-12T11:56:45;95738.22;;;30.32;24.85
79077;BME280;68477;42.698;23.342;2023-08-12T11:59:11;95737.69;;;29.96;27.10
79077;BME280;68477;42.698;23.342;2023-08-12T12:01:36;95735.22;;;29.01;27.89
79077;BME280;68477;42.698;23.342;2023-08-12T12:04:03;95725.84;;;29.33;27.70
79077;BME280;68477;42.698;23.342;2023-08-12T12:06:33;95729.84;;;29.50;28.19
79077;BME280;68477;42.698;23.342;2023-08-12T12:09:05;95736.34;;;28.90;27.51
79077;BME280;68477;42.698;23.342;2023-08-12T12:11:32;95724.72;;;28.54;28.32
79077;BME280;68477;42.698;23.342;2023-08-12T12:14:04;95724.38;;;28.86;27.98
79077;BME280;68477;42.698;23.342;2023-08-12T12:16:41;95720.94;;;28.60;27.76
79077;BME280;68477;42.698;23.342;2023-08-12T12:19:15;95715.81;;;29.33;26.97
79077;BME280;68477;42.698;23.342;2023-08-12T12:21:41;95720.53;;;30.93;25.40
79077;BME280;68477;42.698;23.342;2023-08-12T12:24:11;95714.56;;;30.38;25.03
79077;BME280;68477;42.698;23.342;2023-08-12T12:26:37;95719.03;;;32.05;24.53
79077;BME280;68477;42.698;23.342;2023-08-12T12:29:03;95721.75;;;31.29;24.79
79077;BME280;68477;42.698;23.342;2023-08-12T12:31:30;95713.63;;;29.84;25.66
79077;BME280;68477;42.698;23.342;2023-08-12T12:33:56;95712.44;;;29.62;26.45
79077;BME280;68477;42.698;23.342;2023-08-12T12:36:21;95712.03;;;29.34;26.64
79077;BME280;68477;42.698;23.342;2023-08-12T12:38:47;95710.69;;;28.31;28.06
79077;BME280;68477;42.698;23.342;2023-08-12T12:41:13;95708.25;;;28.20;29.48
79077;BME280;68477;42.698;23.342;2023-08-12T12:43:38;95711.75;;;28.61;30.09
79077;BME280;68477;42.698;23.342;2023-08-12T12:46:03;95709.88;;;27.95;30.13
79077;BME280;68477;42.698;23.342;2023-08-12T12:48:29;95713.13;;;27.97;30.95
79077;BME280;68477;42.698;23.342;2023-08-12T12:50:54;95709.09;;;28.05;30.02
79077;BME280;68477;42.698;23.342;2023-08-12T12:53:20;95706.91;;;28.12;30.46
79077;BME280;68477;42.698;23.342;2023-08-12T12:55:45;95700.19;;;27.99;30.15
79077;BME280;68477;42.698;23.342;2023-08-12T12:58:11;95702.19;;;29.43;29.77